createdAt,value
2018-06-28T00:02:18.979Z,35.23
2018-06-28T00:04:48.060Z,33.03
2018-06-28T00:07:17.082Z,32.20
2018-06-28T00:09:46.072Z,45.33
2018-06-28T00:12:15.056Z,35.87
2018-06-28T00:14:44.130Z,33.67
2018-06-28T00:17:13.159Z,24.90
2018-06-28T00:19:42.119Z,19.57
2018-06-28T00:22:11.124Z,21.43
2018-06-28T00:24:40.163Z,20.33
2018-06-28T00:27:09.238Z,19.07
2018-06-28T00:29:38.342Z,16.63
2018-06-28T00:32:07.516Z,19.83
2018-06-28T00:34:36.487Z,19.63
2018-06-28T00:37:05.545Z,19.73
2018-06-28T00:39:34.564Z,19.67
2018-06-28T00:42:03.712Z,20.60
2018-06-28T00:44:32.728Z,22.90
2018-06-28T00:47:01.748Z,24.03
2018-06-28T00:49:30.782Z,25.53
2018-06-28T00:51:59.859Z,26.40
2018-06-28T00:54:28.887Z,17.83
2018-06-28T00:56:57.895Z,19.70
2018-06-28T00:59:26.836Z,30.20
2018-06-28T01:01:55.896Z,25.50
2018-06-28T01:04:24.903Z,27.23
2018-06-28T01:06:53.945Z,27.83
2018-06-28T01:09:23.008Z,22.23
2018-06-28T01:11:51.965Z,27.93
2018-06-28T01:14:20.990Z,27.80
2018-06-28T01:16:49.951Z,24.50
2018-06-28T01:19:19.034Z,23.60
2018-06-28T01:21:48.049Z,24.40
2018-06-28T01:24:17.036Z,27.13
2018-06-28T01:26:46.024Z,23.30
2018-06-28T01:29:15.053Z,16.67
2018-06-28T01:31:44.150Z,17.43
2018-06-28T01:34:13.313Z,21.70
2018-06-28T01:36:42.373Z,15.03
2018-06-28T01:39:12.452Z,16.17
2018-06-28T01:41:53.012Z,18.17
2018-06-28T01:44:22.041Z,25.00
2018-06-28T01:46:51.119Z,31.33
2018-06-28T01:49:20.237Z,28.37
2018-06-28T01:51:49.221Z,24.30
2018-06-28T01:54:18.234Z,35.27
2018-06-28T01:56:47.277Z,34.30
2018-06-28T01:59:16.299Z,27.93
2018-06-28T02:01:45.386Z,30.17
2018-06-28T02:04:14.401Z,30.40
2018-06-28T02:06:43.511Z,34.80
2018-06-28T02:09:12.533Z,29.23
2018-06-28T02:11:41.514Z,32.13
2018-06-28T02:14:10.612Z,33.97
2018-06-28T02:16:39.621Z,35.63
2018-06-28T02:19:08.584Z,28.87
2018-06-28T02:21:37.549Z,27.37
2018-06-28T02:24:06.566Z,32.57
2018-06-28T02:26:35.605Z,28.63
2018-06-28T02:29:04.611Z,35.87
2018-06-28T02:31:33.641Z,37.30
2018-06-28T02:34:02.627Z,44.57
2018-06-28T02:36:31.652Z,34.97
2018-06-28T02:39:00.751Z,29.93
2018-06-28T02:41:29.766Z,31.30
2018-06-28T02:43:58.724Z,35.00
2018-06-28T02:46:27.767Z,35.63
2018-06-28T02:48:56.787Z,40.80
2018-06-28T02:51:25.876Z,40.43
2018-06-28T02:53:54.970Z,41.03
2018-06-28T02:56:24.157Z,35.13
2018-06-28T02:58:53.129Z,32.00
2018-06-28T03:01:22.097Z,38.60
2018-06-28T03:03:51.144Z,36.37
2018-06-28T03:06:20.152Z,39.10
2018-06-28T03:08:49.217Z,35.27
2018-06-28T03:11:18.529Z,32.17
2018-06-28T03:13:47.544Z,29.63
2018-06-28T03:16:16.613Z,38.67
2018-06-28T03:18:45.564Z,33.13
2018-06-28T03:21:14.523Z,34.80
2018-06-28T03:23:43.525Z,46.23
2018-06-28T03:26:12.464Z,34.20
2018-06-28T03:28:41.477Z,42.50
2018-06-28T03:31:10.433Z,35.23
2018-06-28T03:33:39.392Z,41.63
2018-06-28T03:36:08.516Z,38.57
2018-06-28T03:38:37.534Z,32.37
2018-06-28T03:41:06.817Z,27.43
2018-06-28T03:43:35.893Z,25.80
2018-06-28T03:46:05.010Z,32.10
2018-06-28T03:48:34.064Z,39.53
2018-06-28T03:51:03.156Z,36.30
2018-06-28T03:53:32.205Z,34.47
2018-06-28T03:56:01.177Z,34.90
2018-06-28T03:58:30.164Z,53.97
2018-06-28T04:00:59.227Z,45.63
2018-06-28T04:03:28.229Z,37.43
2018-06-28T04:05:57.316Z,34.27
2018-06-28T04:08:26.272Z,46.43
2018-06-28T04:10:55.281Z,33.93
2018-06-28T04:13:24.368Z,41.17
2018-06-28T04:15:53.442Z,45.73
2018-06-28T04:18:22.537Z,36.97
2018-06-28T04:20:51.604Z,41.47
2018-06-28T04:23:20.566Z,32.53
2018-06-28T04:25:49.530Z,39.83
2018-06-28T04:28:18.554Z,39.13
2018-06-28T04:30:47.589Z,43.80
2018-06-28T04:33:16.672Z,35.43
2018-06-28T04:35:45.606Z,31.40
2018-06-28T04:38:14.721Z,42.60
2018-06-28T04:40:43.905Z,36.17
2018-06-28T04:43:12.981Z,52.77
2018-06-28T04:45:41.981Z,35.80
2018-06-28T04:48:10.956Z,40.93
2018-06-28T04:50:40.067Z,35.83
2018-06-28T04:53:09.095Z,37.10
2018-06-28T04:55:38.437Z,56.77
2018-06-28T04:58:07.505Z,41.87
2018-06-28T05:00:36.705Z,38.60
2018-06-28T05:03:05.773Z,61.63
2018-06-28T05:05:34.732Z,41.53
2018-06-28T05:08:03.864Z,34.30
2018-06-28T05:10:33.198Z,42.10
2018-06-28T05:13:02.214Z,33.03
2018-06-28T05:15:31.314Z,32.63
2018-06-28T05:18:00.325Z,26.50
2018-06-28T05:20:29.397Z,31.20
2018-06-28T05:22:58.434Z,26.40
2018-06-28T05:25:27.462Z,24.20
2018-06-28T05:27:56.508Z,41.83
2018-06-28T05:30:25.541Z,28.30
2018-06-28T05:32:54.652Z,28.87
2018-06-28T05:35:23.749Z,20.27
2018-06-28T05:37:52.744Z,24.03
2018-06-28T05:40:21.804Z,22.50
2018-06-28T05:42:50.829Z,23.73
2018-06-28T05:45:19.949Z,19.07
2018-06-28T05:47:48.937Z,22.47
2018-06-28T05:50:17.900Z,21.13
2018-06-28T05:52:47.217Z,20.33
2018-06-28T05:55:16.183Z,16.73
2018-06-28T05:57:45.219Z,18.90
2018-06-28T06:00:14.283Z,16.50
2018-06-28T06:02:43.333Z,16.03
2018-06-28T06:05:12.306Z,12.43
2018-06-28T06:07:41.268Z,13.20
2018-06-28T06:10:10.352Z,14.33
2018-06-28T06:12:39.389Z,15.80
2018-06-28T06:15:08.504Z,27.57
2018-06-28T06:17:37.552Z,16.93
2018-06-28T06:20:07.770Z,13.90
2018-06-28T06:22:36.857Z,15.90
2018-06-28T06:25:06.089Z,14.07
2018-06-28T06:27:35.080Z,17.17
2018-06-28T06:30:04.186Z,14.67
2018-06-28T06:32:33.167Z,13.00
2018-06-28T06:35:02.293Z,9.40
2018-06-28T06:37:31.295Z,11.57
2018-06-28T06:40:00.399Z,14.43
2018-06-28T06:42:29.489Z,23.07
2018-06-28T06:44:58.589Z,19.00
2018-06-28T06:47:27.620Z,13.07
2018-06-28T06:49:56.829Z,20.60
2018-06-28T06:52:25.785Z,8.67
2018-06-28T06:54:54.901Z,9.90
2018-06-28T06:57:23.905Z,13.07
2018-06-28T06:59:52.956Z,13.63
2018-06-28T07:02:21.977Z,14.07
2018-06-28T07:04:51.005Z,14.63
2018-06-28T07:07:20.009Z,20.90
2018-06-28T07:09:49.082Z,13.20
2018-06-28T07:12:18.115Z,19.33
2018-06-28T07:14:47.149Z,13.00
2018-06-28T07:17:16.239Z,9.13
2018-06-28T07:19:45.300Z,14.63
2018-06-28T07:22:14.383Z,13.00
2018-06-28T07:24:43.425Z,8.27
2018-06-28T07:27:12.418Z,14.30
2018-06-28T07:29:41.497Z,16.33
2018-06-28T07:32:10.456Z,4.70
2018-06-28T07:34:39.565Z,7.03
2018-06-28T07:37:08.529Z,13.93
2018-06-28T07:39:37.534Z,8.47
2018-06-28T07:42:06.705Z,6.00
2018-06-28T07:44:35.739Z,9.00
2018-06-28T07:47:04.758Z,8.93
2018-06-28T07:49:33.752Z,8.30
2018-06-28T07:52:02.703Z,10.23
2018-06-28T07:54:31.858Z,14.20
2018-06-28T07:57:00.834Z,12.60
2018-06-28T07:59:29.797Z,12.07
2018-06-28T08:01:58.840Z,10.37
2018-06-28T08:04:27.815Z,10.80
2018-06-28T08:06:56.865Z,17.53
2018-06-28T08:09:25.902Z,18.70
2018-06-28T08:11:54.915Z,29.60
2018-06-28T08:14:24.022Z,8.20
2018-06-28T08:16:53.096Z,8.60
2018-06-28T08:19:22.112Z,12.93
2018-06-28T08:21:51.128Z,9.20
2018-06-28T08:24:26.449Z,8.40
2018-06-28T08:26:55.495Z,7.97
2018-06-28T08:29:24.465Z,5.27
2018-06-28T08:31:53.481Z,8.60
2018-06-28T08:34:22.443Z,8.30
2018-06-28T08:36:51.572Z,6.30
2018-06-28T08:39:20.593Z,7.67
2018-06-28T08:41:49.538Z,13.53
2018-06-28T08:44:18.665Z,10.07
2018-06-28T08:46:47.697Z,6.87
2018-06-28T08:49:16.782Z,6.03
2018-06-28T08:51:45.733Z,12.10
2018-06-28T08:54:14.732Z,9.40
2018-06-28T08:57:14.706Z,14.00
2018-06-28T08:59:43.771Z,7.83
2018-06-28T09:02:12.957Z,11.50
2018-06-28T09:04:41.915Z,10.50
2018-06-28T09:07:10.913Z,6.03
2018-06-28T09:09:39.876Z,5.37
2018-06-28T09:12:08.869Z,9.23
2018-06-28T09:14:37.879Z,9.73
2018-06-28T09:17:06.887Z,13.57
2018-06-28T09:19:35.896Z,7.90
2018-06-28T09:22:04.856Z,5.20
2018-06-28T09:24:33.865Z,7.57
2018-06-28T09:27:02.972Z,10.17
2018-06-28T09:29:31.936Z,6.33
2018-06-28T09:32:00.978Z,14.63
2018-06-28T09:34:30.002Z,9.13
2018-06-28T09:36:59.172Z,6.80
2018-06-28T09:39:28.188Z,5.57
2018-06-28T09:41:57.119Z,6.10
2018-06-28T09:44:26.055Z,5.97
2018-06-28T09:46:55.017Z,5.47
2018-06-28T09:49:24.182Z,8.20
2018-06-28T09:51:53.229Z,10.30
2018-06-28T09:54:22.238Z,7.77
2018-06-28T09:56:51.168Z,5.80
2018-06-28T09:59:20.148Z,7.70
2018-06-28T10:01:49.080Z,8.00
2018-06-28T10:04:18.066Z,6.50
2018-06-28T10:06:47.072Z,12.53
2018-06-28T10:09:16.108Z,6.80
2018-06-28T10:11:45.136Z,6.67
2018-06-28T10:14:14.088Z,7.33
2018-06-28T10:16:43.052Z,13.17
2018-06-28T10:19:12.050Z,5.83
2018-06-28T10:21:41.060Z,6.00
2018-06-28T10:24:10.072Z,4.40
2018-06-28T10:26:39.137Z,8.93
2018-06-28T10:29:08.218Z,10.50
2018-06-28T10:31:37.241Z,5.03
2018-06-28T10:34:06.267Z,9.20
2018-06-28T10:36:35.280Z,8.43
2018-06-28T10:39:04.993Z,7.77
2018-06-28T10:41:34.010Z,16.70
2018-06-28T10:44:03.016Z,22.43
2018-06-28T10:46:32.112Z,8.67
2018-06-28T10:49:01.113Z,5.07
2018-06-28T10:51:30.136Z,8.50
2018-06-28T10:53:59.147Z,10.50
2018-06-28T10:56:28.159Z,6.57
2018-06-28T10:58:57.213Z,5.33
2018-06-28T11:01:26.404Z,5.97
2018-06-28T11:03:55.446Z,8.03
2018-06-28T11:06:24.473Z,6.73
2018-06-28T11:08:53.415Z,7.83
2018-06-28T11:11:22.524Z,6.40
2018-06-28T11:13:51.456Z,8.77
2018-06-28T11:16:20.452Z,7.90
2018-06-28T11:18:49.460Z,6.63
2018-06-28T11:21:18.502Z,9.10
2018-06-28T11:23:47.543Z,11.93
2018-06-28T11:26:16.618Z,10.20
2018-06-28T11:28:45.592Z,15.77
2018-06-28T11:31:14.579Z,10.83
2018-06-28T11:33:43.565Z,17.10
2018-06-28T11:36:12.688Z,16.00
2018-06-28T11:38:41.690Z,18.47
2018-06-28T11:41:10.676Z,17.13
2018-06-28T11:43:39.818Z,21.13
2018-06-28T11:46:08.914Z,15.63
2018-06-28T11:48:37.988Z,17.67
2018-06-28T11:51:07.045Z,18.17
2018-06-28T11:53:36.009Z,14.60
2018-06-28T11:56:05.077Z,20.90
2018-06-28T11:58:34.089Z,21.13
2018-06-28T12:01:03.113Z,24.37
2018-06-28T12:03:32.148Z,23.93
2018-06-28T12:06:01.123Z,24.30
2018-06-28T12:08:30.173Z,24.93
2018-06-28T12:10:59.205Z,26.13
2018-06-28T12:13:28.357Z,26.03
2018-06-28T12:15:57.359Z,30.10
2018-06-28T12:18:26.372Z,20.40
2018-06-28T12:20:55.432Z,27.23
2018-06-28T12:23:24.465Z,25.20
2018-06-28T12:25:53.636Z,23.43
2018-06-28T12:28:22.634Z,37.43
2018-06-28T12:30:51.700Z,28.53
2018-06-28T12:33:20.767Z,25.73
2018-06-28T12:35:53.861Z,27.27
2018-06-28T12:38:23.106Z,29.70
2018-06-28T12:40:52.063Z,26.10
2018-06-28T12:43:21.073Z,29.93
2018-06-28T12:45:50.148Z,36.33
2018-06-28T12:48:19.126Z,31.00
2018-06-28T12:50:48.230Z,34.77
2018-06-28T12:53:17.229Z,30.90
2018-06-28T12:56:20.753Z,28.63
2018-06-28T12:58:50.994Z,27.37
2018-06-28T13:01:20.289Z,28.83
2018-06-28T13:03:49.436Z,26.30
2018-06-28T13:06:19.135Z,25.20
2018-06-28T13:08:48.205Z,25.20
2018-06-28T13:11:17.168Z,23.97
2018-06-28T13:13:46.294Z,24.27
2018-06-28T13:16:16.493Z,21.60
2018-06-28T13:18:46.330Z,20.07
2018-06-28T13:21:15.372Z,23.80
2018-06-28T13:23:44.398Z,23.37
2018-06-28T13:26:14.593Z,26.53
2018-06-28T13:28:44.056Z,19.57
2018-06-28T13:31:13.131Z,17.40
2018-06-28T13:33:42.113Z,16.30
2018-06-28T13:36:11.085Z,19.53
2018-06-28T13:38:40.164Z,15.17
2018-06-28T13:41:09.362Z,16.63
2018-06-28T13:43:38.276Z,14.97
2018-06-28T13:46:07.287Z,16.13
2018-06-28T13:48:36.310Z,18.57
2018-06-28T13:51:05.351Z,21.00
2018-06-28T13:53:34.322Z,22.77
2018-06-28T13:56:03.317Z,29.17
2018-06-28T13:58:32.314Z,24.60
2018-06-28T14:01:01.408Z,28.30
2018-06-28T14:03:30.479Z,20.80
2018-06-28T14:05:59.468Z,14.80
2018-06-28T14:08:27.232Z,19.00
2018-06-28T14:10:56.261Z,18.73
2018-06-28T14:13:25.302Z,20.47
2018-06-28T14:15:54.402Z,22.03
2018-06-28T14:18:23.376Z,19.27
2018-06-28T14:20:52.459Z,18.87
2018-06-28T14:23:21.464Z,24.07
2018-06-28T14:25:50.505Z,26.53
2018-06-28T14:28:19.565Z,24.60
2018-06-28T14:30:48.540Z,29.27
2018-06-28T14:33:17.584Z,29.07
2018-06-28T14:35:46.589Z,22.63
2018-06-28T14:38:15.641Z,25.43
2018-06-28T14:40:44.681Z,19.90
2018-06-28T14:43:13.701Z,18.57
2018-06-28T14:45:42.685Z,18.53
2018-06-28T14:48:11.729Z,15.13
2018-06-28T14:50:40.884Z,15.27
2018-06-28T14:53:10.070Z,19.67
2018-06-28T14:55:39.142Z,21.93
2018-06-28T14:58:08.117Z,12.87
2018-06-28T15:00:37.153Z,20.17
2018-06-28T15:03:06.149Z,15.67
2018-06-28T15:05:35.290Z,16.67
2018-06-28T15:08:05.287Z,15.10
2018-06-28T15:10:34.247Z,13.67
2018-06-28T15:13:03.817Z,14.70
2018-06-28T15:15:32.830Z,11.87
2018-06-28T15:18:02.901Z,13.73
2018-06-28T15:20:32.456Z,13.10
2018-06-28T15:23:03.982Z,11.50
2018-06-28T15:25:33.996Z,10.30
2018-06-28T15:28:03.009Z,8.17
2018-06-28T15:30:32.113Z,9.33
2018-06-28T15:33:01.847Z,8.90
2018-06-28T15:35:31.233Z,8.30
2018-06-28T15:38:00.728Z,12.40
2018-06-28T15:40:30.154Z,11.73
2018-06-28T15:43:00.565Z,22.80
2018-06-28T15:45:29.528Z,10.73
2018-06-28T15:47:58.553Z,8.80
2018-06-28T15:50:31.798Z,8.77
2018-06-28T15:53:01.086Z,10.70
2018-06-28T15:55:30.475Z,7.77
2018-06-28T15:58:00.244Z,11.30
2018-06-28T16:00:32.993Z,15.90
2018-06-28T16:03:02.158Z,19.20
2018-06-28T16:05:31.576Z,14.93
2018-06-28T16:08:01.148Z,9.23
2018-06-28T16:10:31.118Z,7.73
2018-06-28T16:13:01.409Z,20.47
2018-06-28T16:15:30.683Z,15.37
2018-06-28T16:17:59.707Z,6.57
2018-06-28T16:20:29.284Z,12.97
2018-06-28T16:22:58.660Z,17.97
2018-06-28T16:25:27.685Z,12.63
2018-06-28T16:27:57.753Z,10.17
2018-06-28T16:30:27.857Z,5.83
2018-06-28T16:32:56.821Z,10.33
2018-06-28T16:35:25.828Z,11.13
2018-06-28T16:37:54.933Z,5.10
2018-06-28T16:40:23.929Z,7.70
2018-06-28T16:42:53.062Z,7.20
2018-06-28T16:45:22.105Z,4.67
2018-06-28T16:47:51.058Z,9.10
2018-06-28T16:50:20.064Z,4.73
2018-06-28T16:52:49.021Z,3.33
2018-06-28T16:55:18.105Z,4.37
2018-06-28T16:57:47.119Z,4.03
2018-06-28T17:00:16.145Z,2.87
2018-06-28T17:02:45.117Z,7.83
2018-06-28T17:05:14.189Z,3.80
2018-06-28T17:07:43.385Z,12.50
2018-06-28T17:10:12.313Z,6.73
2018-06-28T17:12:41.276Z,10.83
2018-06-28T17:15:10.255Z,7.00
2018-06-28T17:17:39.189Z,4.30
2018-06-28T17:20:08.340Z,5.53
2018-06-28T17:22:37.903Z,6.53
2018-06-28T17:25:07.067Z,4.93
2018-06-28T17:27:36.852Z,5.40
2018-06-28T17:30:06.227Z,5.67
2018-06-28T17:32:35.322Z,5.10
2018-06-28T17:35:04.295Z,5.10
2018-06-28T17:37:33.367Z,5.80
2018-06-28T17:40:02.733Z,9.10
2018-06-28T17:42:31.846Z,8.30
2018-06-28T17:45:00.971Z,9.40
2018-06-28T17:47:30.016Z,12.60
2018-06-28T17:49:59.070Z,9.80
2018-06-28T17:52:28.236Z,8.87
2018-06-28T17:54:57.210Z,12.57
2018-06-28T17:57:26.324Z,11.57
2018-06-28T17:59:55.387Z,10.70
2018-06-28T18:02:24.368Z,13.27
2018-06-28T18:04:53.524Z,12.33
2018-06-28T18:07:22.589Z,6.10
2018-06-28T18:09:51.704Z,13.93
2018-06-28T18:12:20.717Z,9.10
2018-06-28T18:14:49.702Z,5.83
2018-06-28T18:17:18.744Z,11.17
2018-06-28T18:19:47.763Z,10.00
2018-06-28T18:22:16.812Z,15.50
2018-06-28T18:24:45.832Z,16.20
2018-06-28T18:27:14.859Z,8.93
2018-06-28T18:29:43.862Z,9.37
2018-06-28T18:32:12.973Z,8.30
2018-06-28T18:34:42.042Z,8.43
2018-06-28T18:37:11.078Z,6.47
2018-06-28T18:39:40.133Z,7.10
2018-06-28T18:42:09.241Z,11.80
2018-06-28T18:44:38.198Z,10.87
2018-06-28T18:47:07.273Z,12.10
2018-06-28T18:49:36.378Z,10.47
2018-06-28T18:52:05.428Z,8.90
2018-06-28T18:54:34.424Z,11.83
2018-06-28T18:57:04.328Z,11.40
2018-06-28T18:59:33.581Z,10.53
2018-06-28T19:02:02.648Z,10.00
2018-06-28T19:04:31.734Z,25.43
2018-06-28T19:07:00.800Z,15.60
2018-06-28T19:09:34.858Z,17.13
2018-06-28T19:12:03.928Z,12.70
2018-06-28T19:15:40.585Z,12.67
2018-06-28T19:18:09.620Z,9.07
2018-06-28T19:20:38.634Z,16.67
2018-06-28T19:23:12.789Z,9.30
2018-06-28T19:25:41.759Z,9.40
2018-06-28T19:28:10.768Z,10.80
2018-06-28T19:31:47.544Z,28.17
2018-06-28T19:34:16.583Z,11.53
2018-06-28T19:36:45.603Z,13.87
2018-06-28T19:39:19.774Z,20.77
2018-06-28T19:41:53.922Z,15.10
2018-06-28T19:44:23.057Z,12.33
2018-06-28T19:46:52.117Z,18.30
2018-06-28T19:50:27.620Z,14.73
2018-06-28T19:53:02.128Z,14.10
2018-06-28T19:55:31.160Z,15.33
2018-06-28T19:58:00.164Z,13.03
2018-06-28T20:00:34.328Z,17.50
2018-06-28T20:03:08.433Z,15.90
2018-06-28T20:05:37.520Z,13.60
2018-06-28T20:08:06.606Z,17.07
2018-06-28T20:10:35.576Z,15.33
2018-06-28T20:13:09.610Z,12.23
2018-06-28T20:15:54.412Z,16.63
2018-06-28T20:18:28.427Z,9.63
2018-06-28T20:20:59.508Z,13.87
2018-06-28T20:23:28.757Z,12.93
2018-06-28T20:25:57.844Z,12.17
2018-06-28T20:28:31.956Z,11.20
2018-06-28T20:31:06.012Z,14.63
2018-06-28T20:33:40.047Z,16.03
2018-06-28T20:36:09.076Z,13.37
2018-06-28T20:38:38.171Z,12.00
2018-06-28T20:41:07.128Z,12.50
2018-06-28T20:43:36.081Z,17.83
2018-06-28T20:46:05.048Z,16.07
2018-06-28T20:48:34.082Z,17.93
2018-06-28T20:51:03.206Z,14.37
2018-06-28T20:53:32.341Z,23.43
2018-06-28T20:56:01.409Z,15.57
2018-06-28T20:58:30.394Z,17.20
2018-06-28T21:00:59.394Z,12.00
2018-06-28T21:03:28.432Z,14.40
2018-06-28T21:05:57.511Z,13.37
2018-06-28T21:08:26.543Z,13.37
2018-06-28T21:10:55.596Z,15.13
2018-06-28T21:13:24.561Z,12.80
2018-06-28T21:15:53.697Z,10.37
2018-06-28T21:18:22.718Z,11.83
2018-06-28T21:20:51.685Z,10.33
2018-06-28T21:23:20.663Z,11.23
2018-06-28T21:25:49.706Z,13.07
2018-06-28T21:28:18.740Z,9.97
2018-06-28T21:30:47.770Z,20.13
2018-06-28T21:33:16.732Z,13.97
2018-06-28T21:35:45.715Z,10.93
2018-06-28T21:38:14.769Z,9.07
2018-06-28T21:40:43.867Z,15.00
2018-06-28T21:43:12.899Z,7.43
2018-06-28T21:45:41.862Z,6.53
2018-06-28T21:48:10.992Z,17.10
2018-06-28T21:50:40.034Z,8.57
2018-06-28T21:53:09.044Z,8.13
2018-06-28T21:55:38.159Z,9.63
2018-06-28T21:58:07.070Z,7.43
2018-06-28T22:00:37.430Z,12.23
2018-06-28T22:03:07.728Z,9.63
2018-06-28T22:05:36.829Z,12.60
2018-06-28T22:08:06.135Z,7.53
2018-06-28T22:10:35.093Z,7.77
2018-06-28T22:13:04.125Z,8.17
2018-06-28T22:15:33.229Z,7.27
2018-06-28T22:18:03.385Z,13.83
2018-06-28T22:20:33.259Z,6.93
2018-06-28T22:23:02.265Z,13.20
2018-06-28T22:25:31.962Z,12.83
2018-06-28T22:28:00.978Z,8.30
2018-06-28T22:30:30.055Z,8.10
2018-06-28T22:32:59.141Z,7.47
2018-06-28T22:35:28.100Z,8.40
2018-06-28T22:37:57.140Z,7.53
2018-06-28T22:40:26.084Z,9.60
2018-06-28T22:42:55.110Z,5.57
2018-06-28T22:45:24.080Z,8.20
2018-06-28T22:47:53.159Z,5.80
2018-06-28T22:50:22.225Z,7.37
2018-06-28T22:52:51.264Z,4.93
2018-06-28T22:55:20.306Z,4.60
2018-06-28T22:57:49.333Z,5.03
2018-06-28T23:00:24.025Z,12.70
2018-06-28T23:02:53.117Z,8.20
2018-06-28T23:05:22.085Z,5.53
2018-06-28T23:07:51.102Z,8.13
2018-06-28T23:10:20.125Z,16.50
2018-06-28T23:12:49.107Z,10.30
2018-06-28T23:15:18.061Z,11.40
2018-06-28T23:17:47.100Z,14.57
2018-06-28T23:20:16.160Z,23.23
2018-06-28T23:22:48.489Z,29.73
2018-06-28T23:25:17.527Z,26.80
2018-06-28T23:27:47.290Z,23.40
2018-06-28T23:30:16.566Z,25.30
2018-06-28T23:32:45.582Z,13.00
2018-06-28T23:35:14.617Z,14.50
2018-06-28T23:37:43.657Z,16.97
2018-06-28T23:40:12.618Z,11.60
2018-06-28T23:42:41.690Z,14.80
2018-06-28T23:45:10.927Z,14.20
2018-06-28T23:47:39.999Z,9.60
2018-06-28T23:50:09.997Z,18.40
2018-06-28T23:52:39.053Z,10.43
2018-06-28T23:55:08.440Z,13.80
2018-06-28T23:57:37.508Z,13.13
